createdAt,value
2022-10-25T00:01:59.708Z,0.50
2022-10-25T00:04:01.748Z,0.75
2022-10-25T00:06:03.461Z,0.68
2022-10-25T00:08:05.634Z,0.52
2022-10-25T00:10:08.477Z,0.60
2022-10-25T00:12:10.274Z,0.47
2022-10-25T00:14:18.571Z,0.63
2022-10-25T00:16:24.711Z,0.55
2022-10-25T00:18:26.604Z,0.60
2022-10-25T00:20:28.297Z,0.50
2022-10-25T00:22:29.895Z,0.60
2022-10-25T00:24:32.086Z,0.45
2022-10-25T00:26:34.909Z,0.75
2022-10-25T00:28:36.761Z,0.50
2022-10-25T00:30:38.450Z,0.55
2022-10-25T00:32:40.090Z,0.60
2022-10-25T00:34:41.621Z,0.50
2022-10-25T00:36:43.209Z,0.47
2022-10-25T00:38:46.277Z,0.40
2022-10-25T00:40:48.125Z,0.35
2022-10-25T00:42:49.782Z,0.60
2022-10-25T00:45:01.954Z,0.60
2022-10-25T00:47:06.983Z,0.50
2022-10-25T00:49:13.079Z,0.40
2022-10-25T00:51:14.961Z,0.55
2022-10-25T00:53:20.573Z,0.60
2022-10-25T00:55:26.999Z,0.60
2022-10-25T00:57:53.833Z,0.40
2022-10-25T00:59:56.141Z,0.60
2022-10-25T01:01:58.330Z,0.60
2022-10-25T01:04:04.962Z,0.50
2022-10-25T01:06:14.037Z,0.57
2022-10-25T01:08:16.437Z,0.43
2022-10-25T01:10:18.402Z,0.40
2022-10-25T01:12:20.339Z,0.32
2022-10-25T01:14:23.148Z,0.50
2022-10-25T01:16:54.342Z,0.55
2022-10-25T01:21:50.575Z,0.70
2022-10-25T01:24:16.364Z,0.38
2022-10-25T01:26:41.259Z,0.50
2022-10-25T01:29:06.146Z,0.43
2022-10-25T01:31:20.754Z,0.40
2022-10-25T01:33:47.113Z,0.47
2022-10-25T01:35:57.655Z,0.60
2022-10-25T01:38:11.332Z,0.50
2022-10-25T01:40:24.082Z,0.52
2022-10-25T01:42:47.599Z,0.50
2022-10-25T01:45:01.645Z,0.50
2022-10-25T01:47:05.488Z,0.50
2022-10-25T01:49:14.641Z,0.60
2022-10-25T01:51:18.382Z,0.70
2022-10-25T01:53:20.028Z,0.60
2022-10-25T01:55:35.369Z,0.55
2022-10-25T01:57:37.174Z,0.68
2022-10-25T02:00:03.257Z,0.85
2022-10-25T02:02:36.640Z,0.80
2022-10-25T02:04:52.967Z,0.90
2022-10-25T02:07:06.628Z,1.20
2022-10-25T02:09:22.579Z,1.20
2022-10-25T02:11:32.421Z,1.20
2022-10-25T02:13:44.104Z,1.10
2022-10-25T02:15:58.663Z,0.80
2022-10-25T02:18:04.912Z,0.80
2022-10-25T02:20:07.933Z,0.77
2022-10-25T02:22:12.470Z,0.60
2022-10-25T02:24:19.360Z,0.50
2022-10-25T02:26:21.960Z,0.50
2022-10-25T02:28:27.840Z,0.50
2022-10-25T02:30:33.891Z,0.60
2022-10-25T02:32:35.687Z,0.70
2022-10-25T02:34:37.177Z,0.35
2022-10-25T02:36:38.776Z,0.50
2022-10-25T02:38:41.650Z,0.40
2022-10-25T02:40:43.296Z,0.50
2022-10-25T02:42:44.962Z,0.40
2022-10-25T02:44:46.833Z,0.52
2022-10-25T02:46:48.483Z,0.60
2022-10-25T02:48:50.725Z,0.50
2022-10-25T02:50:52.459Z,0.40
2022-10-25T02:52:54.090Z,0.50
2022-10-25T02:54:56.165Z,0.50
2022-10-25T02:56:57.780Z,0.55
2022-10-25T02:58:59.411Z,0.50
2022-10-25T03:01:01.799Z,0.50
2022-10-25T03:03:03.634Z,0.50
2022-10-25T03:05:05.571Z,0.70
2022-10-25T03:07:07.451Z,0.63
2022-10-25T03:09:09.791Z,0.60
2022-10-25T03:11:12.673Z,0.40
2022-10-25T03:13:14.489Z,0.50
2022-10-25T03:15:16.152Z,0.60
2022-10-25T03:17:17.726Z,0.60
2022-10-25T03:19:19.327Z,0.40
2022-10-25T03:21:20.903Z,0.40
2022-10-25T03:23:22.581Z,0.50
2022-10-25T03:25:24.667Z,0.60
2022-10-25T03:27:26.112Z,0.47
2022-10-25T03:29:27.628Z,0.70
2022-10-25T03:31:29.396Z,0.50
2022-10-25T03:35:38.053Z,0.60
2022-10-25T03:37:39.740Z,0.47
2022-10-25T03:39:41.368Z,0.50
2022-10-25T03:41:42.928Z,0.82
2022-10-25T03:43:44.468Z,0.80
2022-10-25T03:45:46.331Z,0.50
2022-10-25T03:47:48.165Z,0.50
2022-10-25T03:49:49.805Z,0.63
2022-10-25T03:51:53.996Z,0.47
2022-10-25T03:53:59.330Z,0.57
2022-10-25T03:56:01.290Z,0.50
2022-10-25T03:58:02.946Z,0.70
2022-10-25T04:00:05.471Z,0.52
2022-10-25T04:02:14.661Z,0.73
2022-10-25T04:04:16.350Z,0.70
2022-10-25T04:06:18.776Z,0.68
2022-10-25T04:08:20.578Z,0.52
2022-10-25T04:10:25.022Z,0.52
2022-10-25T04:12:27.018Z,0.80
2022-10-25T04:14:31.668Z,0.70
2022-10-25T04:16:33.519Z,0.60
2022-10-25T04:18:35.525Z,0.63
2022-10-25T04:20:37.296Z,0.52
2022-10-25T04:22:39.240Z,0.47
2022-10-25T04:24:40.994Z,0.70
2022-10-25T04:26:42.783Z,0.70
2022-10-25T04:28:49.279Z,0.70
2022-10-25T04:30:50.804Z,0.70
2022-10-25T04:32:52.645Z,0.63
2022-10-25T04:34:54.446Z,0.68
2022-10-25T04:36:55.947Z,0.57
2022-10-25T04:38:57.641Z,0.70
2022-10-25T04:41:00.801Z,0.50
2022-10-25T04:43:02.657Z,0.55
2022-10-25T04:45:04.776Z,0.70
2022-10-25T04:47:06.592Z,0.50
2022-10-25T04:49:11.322Z,0.40
2022-10-25T04:51:13.714Z,0.60
2022-10-25T04:53:15.401Z,0.60
2022-10-25T04:55:17.211Z,0.75
2022-10-25T04:57:18.960Z,0.70
2022-10-25T04:59:20.869Z,0.85
2022-10-25T05:01:22.457Z,0.65
2022-10-25T05:03:24.476Z,0.70
2022-10-25T05:05:26.080Z,1.00
2022-10-25T05:07:27.836Z,1.02
2022-10-25T05:09:29.745Z,1.42
2022-10-25T05:11:32.483Z,1.60
2022-10-25T05:13:36.662Z,1.40
2022-10-25T05:15:38.363Z,1.95
2022-10-25T05:17:39.910Z,1.55
2022-10-25T05:19:41.883Z,1.48
2022-10-25T05:21:48.022Z,1.25
2022-10-25T05:23:49.798Z,1.40
2022-10-25T05:26:05.126Z,1.30
2022-10-25T05:28:06.668Z,1.40
2022-10-25T05:30:09.274Z,1.50
2022-10-25T05:32:13.410Z,1.33
2022-10-25T05:34:17.317Z,1.20
2022-10-25T05:36:19.797Z,1.10
2022-10-25T05:38:21.518Z,1.10
2022-10-25T05:40:23.700Z,0.95
2022-10-25T05:42:27.458Z,1.08
2022-10-25T05:44:29.135Z,0.90
2022-10-25T05:46:31.321Z,1.20
2022-10-25T05:48:34.671Z,1.00
2022-10-25T05:50:36.306Z,0.80
2022-10-25T05:52:44.431Z,1.00
2022-10-25T05:54:46.220Z,1.10
2022-10-25T05:56:47.692Z,1.20
2022-10-25T05:58:59.225Z,1.10
2022-10-25T06:01:01.142Z,1.05
2022-10-25T06:03:03.218Z,1.00
2022-10-25T06:05:05.183Z,1.05
2022-10-25T06:07:06.723Z,0.85
2022-10-25T06:09:10.113Z,1.00
2022-10-25T06:11:14.911Z,0.90
2022-10-25T06:13:16.490Z,1.00
2022-10-25T06:15:18.146Z,0.90
2022-10-25T06:17:22.589Z,0.90
2022-10-25T06:19:24.195Z,0.85
2022-10-25T06:21:28.194Z,1.23
2022-10-25T06:23:31.516Z,0.80
2022-10-25T06:25:33.125Z,1.02
2022-10-25T06:27:36.867Z,1.00
2022-10-25T06:29:38.616Z,0.90
2022-10-25T06:31:41.627Z,0.90
2022-10-25T06:33:44.117Z,0.90
2022-10-25T06:35:45.697Z,0.73
2022-10-25T06:37:47.470Z,1.13
2022-10-25T06:39:49.219Z,1.10
2022-10-25T06:41:50.986Z,1.30
2022-10-25T06:43:54.471Z,0.88
2022-10-25T06:45:56.579Z,1.10
2022-10-25T06:47:58.265Z,1.05
2022-10-25T06:50:03.065Z,1.02
2022-10-25T06:52:04.976Z,1.30
2022-10-25T06:54:08.066Z,1.05
2022-10-25T06:56:14.692Z,0.90
2022-10-25T06:58:16.491Z,0.82
2022-10-25T07:00:18.483Z,0.80
2022-10-25T07:02:20.344Z,0.80
2022-10-25T07:04:22.528Z,1.00
2022-10-25T07:06:26.773Z,0.93
2022-10-25T07:08:28.705Z,0.93
2022-10-25T07:10:30.441Z,0.65
2022-10-25T07:12:38.032Z,0.93
2022-10-25T07:14:39.919Z,0.70
2022-10-25T07:16:41.707Z,0.95
2022-10-25T07:18:44.523Z,1.10
2022-10-25T07:20:48.694Z,0.77
2022-10-25T07:22:50.314Z,0.88
2022-10-25T07:24:52.092Z,1.00
2022-10-25T07:26:53.676Z,0.80
2022-10-25T07:28:57.225Z,1.25
2022-10-25T07:30:59.017Z,0.75
2022-10-25T07:33:03.107Z,0.90
2022-10-25T07:35:05.655Z,0.90
2022-10-25T07:37:07.499Z,1.02
2022-10-25T07:39:09.662Z,1.17
2022-10-25T07:41:11.525Z,1.25
2022-10-25T07:43:13.222Z,1.35
2022-10-25T07:45:17.382Z,1.20
2022-10-25T07:47:22.023Z,0.80
2022-10-25T07:49:23.537Z,1.08
2022-10-25T07:51:25.258Z,1.10
2022-10-25T07:53:26.962Z,1.20
2022-10-25T07:55:28.617Z,0.90
2022-10-25T07:57:30.235Z,1.10
2022-10-25T07:59:32.685Z,1.20
2022-10-25T08:01:34.335Z,1.33
2022-10-25T08:03:36.721Z,1.10
2022-10-25T08:05:38.510Z,0.90
2022-10-25T08:07:40.261Z,0.80
2022-10-25T08:09:41.968Z,1.20
2022-10-25T08:11:43.766Z,1.10
2022-10-25T08:13:49.110Z,1.00
2022-10-25T08:15:52.686Z,1.30
2022-10-25T08:18:02.016Z,1.00
2022-10-25T08:20:03.991Z,1.05
2022-10-25T08:22:05.877Z,1.42
2022-10-25T08:24:07.818Z,1.08
2022-10-25T08:26:09.714Z,0.90
2022-10-25T08:28:11.455Z,0.95
2022-10-25T08:30:13.230Z,0.95
2022-10-25T08:32:15.195Z,1.20
2022-10-25T08:34:16.988Z,1.20
2022-10-25T08:36:18.535Z,1.40
2022-10-25T08:38:20.147Z,1.02
2022-10-25T08:40:26.277Z,1.80
2022-10-25T08:42:51.728Z,1.10
2022-10-25T08:45:06.000Z,1.67
2022-10-25T08:47:27.254Z,1.77
2022-10-25T08:49:49.911Z,2.00
2022-10-25T08:51:53.926Z,2.60
2022-10-25T08:54:00.265Z,2.95
2022-10-25T08:56:17.904Z,3.00
2022-10-25T08:58:43.467Z,3.03
2022-10-25T09:00:47.393Z,2.50
2022-10-25T09:03:00.265Z,2.60
2022-10-25T09:05:02.371Z,2.53
2022-10-25T09:07:11.326Z,2.53
2022-10-25T09:09:25.057Z,2.70
2022-10-25T09:11:38.531Z,2.33
2022-10-25T09:13:40.367Z,2.83
2022-10-25T09:16:01.443Z,2.97
2022-10-25T09:18:13.722Z,2.40
2022-10-25T09:20:21.697Z,3.20
2022-10-25T09:22:31.786Z,3.25
2022-10-25T09:24:56.856Z,3.00
2022-10-25T09:27:08.296Z,3.25
2022-10-25T09:29:44.154Z,3.10
2022-10-25T09:31:51.411Z,4.63
2022-10-25T09:34:03.182Z,4.60
2022-10-25T09:36:08.383Z,4.85
2022-10-25T09:38:23.542Z,5.43
2022-10-25T09:40:30.146Z,5.20
2022-10-25T09:42:41.100Z,3.95
2022-10-25T09:44:48.345Z,4.40
2022-10-25T09:46:57.958Z,3.83
2022-10-25T09:49:05.638Z,3.70
2022-10-25T09:51:24.232Z,3.28
2022-10-25T09:53:26.311Z,2.45
2022-10-25T09:55:50.214Z,2.42
2022-10-25T09:57:51.989Z,2.50
2022-10-25T09:59:53.908Z,2.00
2022-10-25T10:01:55.761Z,2.10
2022-10-25T10:04:10.437Z,1.95
2022-10-25T10:06:26.125Z,2.20
2022-10-25T10:08:31.794Z,2.45
2022-10-25T10:10:35.541Z,2.10
2022-10-25T10:12:53.631Z,2.05
2022-10-25T10:15:07.383Z,2.10
2022-10-25T10:17:15.412Z,2.05
2022-10-25T10:19:18.626Z,1.77
2022-10-25T10:21:22.254Z,1.67
2022-10-25T10:23:25.201Z,1.77
2022-10-25T10:25:30.921Z,1.70
2022-10-25T10:27:33.950Z,1.85
2022-10-25T10:29:38.335Z,1.70
2022-10-25T10:31:43.728Z,1.85
2022-10-25T10:33:50.330Z,1.67
2022-10-25T10:35:54.389Z,1.20
2022-10-25T10:38:15.175Z,1.27
2022-10-25T10:40:19.757Z,1.23
2022-10-25T10:42:37.847Z,1.13
2022-10-25T10:44:39.875Z,1.20
2022-10-25T10:46:46.906Z,1.17
2022-10-25T10:48:58.379Z,1.15
2022-10-25T10:51:09.067Z,1.00
2022-10-25T10:53:31.421Z,1.27
2022-10-25T10:55:37.620Z,1.08
2022-10-25T10:57:39.293Z,1.30
2022-10-25T10:59:52.172Z,0.90
2022-10-25T11:02:02.584Z,1.00
2022-10-25T11:04:04.913Z,1.20
2022-10-25T11:06:19.004Z,1.02
2022-10-25T11:08:21.618Z,1.00
2022-10-25T11:10:32.827Z,0.98
2022-10-25T11:12:37.620Z,1.02
2022-10-25T11:14:42.810Z,1.08
2022-10-25T11:17:19.875Z,1.20
2022-10-25T11:19:51.514Z,1.35
2022-10-25T11:22:29.402Z,1.10
2022-10-25T11:24:58.801Z,1.35
2022-10-25T11:27:05.423Z,1.25
2022-10-25T11:29:25.717Z,1.00
2022-10-25T11:31:45.842Z,1.25
2022-10-25T11:34:00.463Z,0.95
2022-10-25T11:36:27.525Z,1.15
2022-10-25T11:38:59.190Z,0.90
2022-10-25T11:41:16.552Z,1.30
2022-10-25T11:43:46.481Z,1.10
2022-10-25T11:45:57.148Z,1.10
2022-10-25T11:48:36.483Z,1.00
2022-10-25T11:50:54.796Z,0.90
2022-10-25T11:53:21.342Z,0.70
2022-10-25T11:56:09.598Z,1.10
2022-10-25T11:58:45.741Z,0.90
2022-10-25T12:01:10.841Z,1.08
2022-10-25T12:03:34.182Z,0.93
2022-10-25T12:06:09.802Z,0.85
2022-10-25T12:08:47.014Z,1.08
2022-10-25T12:10:56.734Z,0.80
2022-10-25T12:13:06.307Z,0.95
2022-10-25T12:15:15.487Z,0.90
2022-10-25T12:17:29.840Z,0.90
2022-10-25T12:19:42.429Z,1.00
2022-10-25T12:21:56.696Z,1.05
2022-10-25T12:24:02.920Z,1.30
2022-10-25T12:26:14.620Z,1.23
2022-10-25T12:28:37.604Z,1.17
2022-10-25T12:30:41.225Z,0.93
2022-10-25T12:32:46.971Z,0.98
2022-10-25T12:34:57.668Z,1.20
2022-10-25T12:37:07.061Z,1.20
2022-10-25T12:39:30.543Z,0.90
2022-10-25T12:41:39.095Z,0.98
2022-10-25T12:43:51.902Z,0.90
2022-10-25T12:46:07.959Z,1.00
2022-10-25T12:48:53.475Z,0.82
2022-10-25T12:51:21.270Z,1.05
2022-10-25T12:53:31.914Z,0.80
2022-10-25T12:55:53.227Z,1.00
2022-10-25T12:58:02.278Z,0.73
2022-10-25T13:00:17.313Z,0.88
2022-10-25T13:02:39.232Z,0.80
2022-10-25T13:05:11.821Z,0.70
2022-10-25T13:07:17.394Z,0.75
2022-10-25T13:09:24.766Z,0.80
2022-10-25T13:11:54.651Z,0.70
2022-10-25T13:13:59.005Z,0.65
2022-10-25T13:16:05.420Z,0.63
2022-10-25T13:18:24.962Z,0.40
2022-10-25T13:20:35.759Z,0.70
2022-10-25T13:22:41.607Z,0.60
2022-10-25T13:24:44.913Z,0.60
2022-10-25T13:27:19.532Z,0.80
2022-10-25T13:29:47.997Z,0.80
2022-10-25T13:32:08.836Z,0.60
2022-10-25T13:34:13.465Z,1.00
2022-10-25T13:36:15.234Z,0.73
2022-10-25T13:38:25.985Z,0.60
2022-10-25T13:40:30.177Z,0.80
2022-10-25T13:42:34.287Z,0.70
2022-10-25T13:44:53.442Z,0.70
2022-10-25T13:46:55.861Z,0.63
2022-10-25T13:48:57.725Z,0.73
2022-10-25T13:51:17.918Z,0.65
2022-10-25T13:53:34.135Z,0.70
2022-10-25T13:55:38.857Z,0.93
2022-10-25T13:57:52.791Z,0.70
2022-10-25T13:59:55.732Z,0.60
2022-10-25T14:02:14.964Z,0.77
2022-10-25T14:04:33.808Z,0.70
2022-10-25T14:06:37.772Z,0.60
2022-10-25T14:09:09.661Z,0.70
2022-10-25T14:11:23.690Z,0.77
2022-10-25T14:13:45.048Z,0.70
2022-10-25T14:15:58.384Z,0.50
2022-10-25T14:18:07.137Z,0.68
2022-10-25T14:20:31.562Z,0.73
2022-10-25T14:22:40.176Z,0.70
2022-10-25T14:24:43.912Z,0.70
2022-10-25T14:26:51.249Z,0.55
2022-10-25T14:29:11.754Z,0.60
2022-10-25T14:31:19.726Z,0.77
2022-10-25T14:33:26.213Z,0.90
2022-10-25T14:35:34.148Z,0.90
2022-10-25T14:37:42.249Z,0.80
2022-10-25T14:39:53.178Z,0.77
2022-10-25T14:42:00.539Z,0.65
2022-10-25T14:44:02.627Z,0.70
2022-10-25T14:46:10.442Z,0.80
2022-10-25T14:48:14.981Z,0.65
2022-10-25T14:50:20.707Z,0.70
2022-10-25T14:52:22.497Z,0.80
2022-10-25T14:54:29.180Z,0.70
2022-10-25T14:56:54.876Z,0.60
2022-10-25T14:58:57.622Z,0.65
2022-10-25T15:01:04.935Z,0.60
2022-10-25T15:03:07.653Z,0.45
2022-10-25T15:05:22.768Z,0.70
2022-10-25T15:07:25.773Z,1.00
2022-10-25T15:09:42.393Z,0.47
2022-10-25T15:12:11.625Z,0.70
2022-10-25T15:14:21.526Z,0.60
2022-10-25T15:16:41.448Z,0.85
2022-10-25T15:18:43.243Z,0.70
2022-10-25T15:20:51.098Z,0.70
2022-10-25T15:23:04.643Z,0.80
2022-10-25T15:25:31.183Z,0.70
2022-10-25T15:27:39.573Z,1.00
2022-10-25T15:29:43.950Z,0.80
2022-10-25T15:31:45.839Z,1.00
2022-10-25T15:33:48.405Z,0.80
2022-10-25T15:35:53.446Z,1.00
2022-10-25T15:37:56.151Z,0.75
2022-10-25T15:39:58.057Z,1.00
2022-10-25T15:41:59.819Z,1.10
2022-10-25T15:44:01.518Z,0.98
2022-10-25T15:46:03.364Z,1.23
2022-10-25T15:48:07.793Z,1.10
2022-10-25T15:50:18.287Z,0.95
2022-10-25T15:52:20.495Z,1.00
2022-10-25T15:54:24.296Z,1.02
2022-10-25T15:56:25.987Z,1.00
2022-10-25T15:58:27.772Z,1.10
2022-10-25T16:00:31.008Z,1.35
2022-10-25T16:02:32.653Z,1.15
2022-10-25T16:04:34.077Z,1.02
2022-10-25T16:06:35.662Z,1.10
2022-10-25T16:08:37.198Z,1.10
2022-10-25T16:10:39.755Z,1.20
2022-10-25T16:12:42.666Z,1.25
2022-10-25T16:14:44.612Z,1.27
2022-10-25T16:16:46.361Z,2.33
2022-10-25T16:18:48.066Z,1.95
2022-10-25T16:20:49.841Z,2.45
2022-10-25T16:22:52.197Z,2.13
2022-10-25T16:24:54.141Z,2.83
2022-10-25T16:26:55.808Z,2.92
2022-10-25T16:28:57.372Z,2.88
2022-10-25T16:30:59.036Z,3.20
2022-10-25T16:33:00.894Z,4.20
2022-10-25T16:35:02.995Z,4.72
2022-10-25T16:37:07.791Z,4.47
2022-10-25T16:39:13.762Z,5.13
2022-10-25T16:41:31.889Z,4.78
2022-10-25T16:43:33.720Z,3.95
2022-10-25T16:45:37.197Z,3.90
2022-10-25T16:47:39.126Z,3.80
2022-10-25T16:49:40.831Z,3.55
2022-10-25T16:51:45.793Z,3.00
2022-10-25T16:53:48.391Z,3.08
2022-10-25T16:55:50.320Z,3.33
2022-10-25T16:57:51.991Z,2.67
2022-10-25T16:59:53.579Z,3.47
2022-10-25T17:01:55.747Z,3.22
2022-10-25T17:03:57.529Z,4.30
2022-10-25T17:06:00.370Z,4.10
2022-10-25T17:08:02.237Z,4.00
2022-10-25T17:10:03.921Z,3.88
2022-10-25T17:12:09.492Z,3.30
2022-10-25T17:14:12.562Z,2.90
2022-10-25T17:16:16.230Z,2.50
2022-10-25T17:18:21.573Z,1.90
2022-10-25T17:20:23.883Z,1.95
2022-10-25T17:22:27.050Z,1.90
2022-10-25T17:24:32.903Z,2.05
2022-10-25T17:26:35.046Z,2.35
2022-10-25T17:28:40.081Z,2.60
2022-10-25T17:30:44.993Z,3.00
2022-10-25T17:32:47.086Z,3.13
2022-10-25T17:34:48.766Z,4.20
2022-10-25T17:38:59.676Z,3.92
2022-10-25T17:41:01.427Z,3.40
2022-10-25T17:43:03.379Z,3.83
2022-10-25T17:45:06.420Z,3.78
2022-10-25T17:47:08.079Z,4.70
2022-10-25T17:49:09.995Z,4.90
2022-10-25T17:51:13.505Z,5.63
2022-10-25T17:53:15.089Z,6.25
2022-10-25T17:55:17.325Z,6.65
2022-10-25T17:57:19.063Z,6.47
2022-10-25T17:59:24.366Z,5.80
2022-10-25T18:01:28.107Z,5.40
2022-10-25T18:03:31.559Z,4.40
2022-10-25T18:05:33.383Z,4.10
2022-10-25T18:07:35.251Z,3.67
2022-10-25T18:09:37.145Z,3.33
2022-10-25T18:11:41.072Z,3.10
2022-10-25T18:13:44.323Z,2.75
2022-10-25T18:15:49.457Z,2.92
2022-10-25T18:17:51.457Z,3.40
2022-10-25T18:19:53.713Z,3.20
2022-10-25T18:22:00.733Z,3.97
2022-10-25T18:24:07.030Z,4.05
2022-10-25T18:26:12.482Z,3.80
2022-10-25T18:28:14.014Z,4.20
2022-10-25T18:30:16.194Z,3.97
2022-10-25T18:32:17.997Z,3.80
2022-10-25T18:34:19.856Z,3.97
2022-10-25T18:36:21.875Z,3.58
2022-10-25T18:38:23.674Z,4.38
2022-10-25T18:40:25.306Z,3.97
2022-10-25T18:42:29.371Z,5.47
2022-10-25T18:44:31.120Z,6.85
2022-10-25T18:46:32.959Z,7.05
2022-10-25T18:48:34.679Z,7.53
2022-10-25T18:50:40.434Z,8.48
2022-10-25T18:52:47.350Z,9.20
2022-10-25T18:54:49.473Z,10.30
2022-10-25T18:56:51.217Z,11.63
2022-10-25T18:58:54.639Z,11.40
2022-10-25T19:00:58.675Z,11.93
2022-10-25T19:03:00.324Z,13.20
2022-10-25T19:05:02.292Z,11.50
2022-10-25T19:07:07.007Z,13.10
2022-10-25T19:09:08.648Z,14.00
2022-10-25T19:11:13.112Z,16.27
2022-10-25T19:13:19.274Z,15.60
2022-10-25T19:15:20.975Z,17.17
2022-10-25T19:17:22.608Z,19.20
2022-10-25T19:19:24.285Z,19.85
2022-10-25T19:21:26.008Z,18.85
2022-10-25T19:23:31.017Z,18.38
2022-10-25T19:25:33.221Z,15.50
2022-10-25T19:27:37.170Z,14.65
2022-10-25T19:29:38.965Z,12.00
2022-10-25T19:31:40.821Z,11.05
2022-10-25T19:33:47.035Z,10.02
2022-10-25T19:35:48.734Z,7.90
2022-10-25T19:37:50.711Z,7.32
2022-10-25T19:39:54.523Z,7.38
2022-10-25T19:42:02.360Z,8.48
2022-10-25T19:44:04.350Z,8.35
2022-10-25T19:46:07.560Z,7.78
2022-10-25T19:48:09.217Z,8.05
2022-10-25T19:50:11.424Z,7.10
2022-10-25T19:52:13.109Z,6.72
2022-10-25T19:54:14.881Z,6.10
2022-10-25T19:56:19.531Z,5.18
2022-10-25T19:58:21.090Z,5.07
2022-10-25T20:00:23.071Z,4.78
2022-10-25T20:02:25.209Z,4.68
2022-10-25T20:04:29.716Z,5.40
2022-10-25T20:06:34.432Z,4.78
2022-10-25T20:08:42.219Z,4.63
2022-10-25T20:10:44.049Z,4.68
2022-10-25T20:12:45.588Z,5.07
2022-10-25T20:14:47.275Z,4.40
2022-10-25T20:16:48.820Z,5.05
2022-10-25T20:18:51.112Z,4.20
2022-10-25T20:20:58.474Z,4.40
2022-10-25T20:23:00.146Z,4.43
2022-10-25T20:25:01.946Z,4.25
2022-10-25T20:27:03.742Z,3.97
2022-10-25T20:29:08.356Z,4.78
2022-10-25T20:31:11.078Z,4.30
2022-10-25T20:33:12.864Z,4.20
2022-10-25T20:35:14.827Z,4.43
2022-10-25T20:37:16.614Z,4.50
2022-10-25T20:39:18.400Z,4.15
2022-10-25T20:41:25.823Z,3.92
2022-10-25T20:43:27.494Z,4.25
2022-10-25T20:45:30.040Z,4.07
2022-10-25T20:47:31.896Z,4.07
2022-10-25T20:49:33.572Z,4.13
2022-10-25T20:51:35.585Z,3.85
2022-10-25T20:53:38.425Z,4.38
2022-10-25T20:55:40.177Z,4.10
2022-10-25T20:57:45.587Z,4.03
2022-10-25T20:59:49.347Z,4.03
2022-10-25T21:01:51.251Z,4.82
2022-10-25T21:03:54.029Z,4.43
2022-10-25T21:06:04.703Z,4.00
2022-10-25T21:08:06.577Z,4.57
2022-10-25T21:10:08.442Z,4.72
2022-10-25T21:12:10.119Z,4.30
2022-10-25T21:14:12.185Z,3.90
2022-10-25T21:16:15.627Z,3.65
2022-10-25T21:18:17.840Z,3.92
2022-10-25T21:20:19.751Z,3.95
2022-10-25T21:22:21.335Z,3.80
2022-10-25T21:24:22.916Z,4.13
2022-10-25T21:26:24.601Z,3.95
2022-10-25T21:28:28.951Z,6.13
2022-10-25T21:30:30.847Z,6.85
2022-10-25T21:32:35.983Z,7.28
2022-10-25T21:34:37.786Z,6.65
2022-10-25T21:36:39.473Z,5.70
2022-10-25T21:38:41.713Z,4.90
2022-10-25T21:40:43.428Z,4.53
2022-10-25T21:42:45.645Z,4.43
2022-10-25T21:44:49.493Z,3.80
2022-10-25T21:46:51.328Z,3.78
2022-10-25T21:48:53.634Z,4.03
2022-10-25T21:50:58.446Z,3.83
2022-10-25T21:53:00.053Z,3.38
2022-10-25T21:55:02.112Z,3.72
2022-10-25T21:57:03.868Z,3.40
2022-10-25T21:59:05.674Z,3.70
2022-10-25T22:01:13.467Z,3.80
2022-10-25T22:03:15.122Z,5.32
2022-10-25T22:05:16.786Z,7.57
2022-10-25T22:07:18.439Z,9.32
2022-10-25T22:09:20.272Z,7.85
2022-10-25T22:11:24.516Z,5.70
2022-10-25T22:13:26.538Z,4.60
2022-10-25T22:15:28.137Z,3.70
2022-10-25T22:17:29.914Z,3.08
2022-10-25T22:19:31.438Z,3.33
2022-10-25T22:21:36.344Z,2.97
2022-10-25T22:23:39.435Z,3.08
2022-10-25T22:25:41.038Z,3.45
2022-10-25T22:29:49.438Z,2.72
2022-10-25T22:31:50.981Z,2.55
2022-10-25T22:33:54.759Z,2.70
2022-10-25T22:36:02.224Z,2.75
2022-10-25T22:38:03.916Z,2.53
2022-10-25T22:40:06.064Z,2.63
2022-10-25T22:42:11.982Z,2.63
2022-10-25T22:44:13.778Z,2.70
2022-10-25T22:46:25.943Z,2.47
2022-10-25T22:48:35.374Z,2.65
2022-10-25T22:50:37.132Z,2.63
2022-10-25T22:52:41.620Z,2.58
2022-10-25T22:54:43.430Z,2.40
2022-10-25T22:56:45.061Z,2.40
2022-10-25T22:58:58.085Z,2.17
2022-10-25T23:03:09.935Z,2.60
2022-10-25T23:05:11.892Z,2.58
2022-10-25T23:07:13.733Z,2.67
2022-10-25T23:09:15.312Z,2.65
2022-10-25T23:11:20.025Z,2.25
2022-10-25T23:13:21.592Z,2.60
2022-10-25T23:15:23.469Z,2.83
2022-10-25T23:17:25.143Z,2.55
2022-10-25T23:19:26.712Z,2.60
2022-10-25T23:21:32.078Z,2.80
2022-10-25T23:23:35.604Z,2.70
2022-10-25T23:25:37.329Z,2.50
2022-10-25T23:27:38.804Z,2.50
2022-10-25T23:29:41.219Z,3.05
2022-10-25T23:31:42.835Z,3.00
2022-10-25T23:33:44.628Z,2.60
2022-10-25T23:35:46.351Z,2.75
2022-10-25T23:37:48.334Z,2.72
2022-10-25T23:39:57.323Z,2.72
2022-10-25T23:41:58.867Z,2.97
2022-10-25T23:44:00.657Z,3.00
2022-10-25T23:46:02.538Z,2.90
2022-10-25T23:48:04.355Z,2.50
2022-10-25T23:50:07.396Z,2.80
2022-10-25T23:52:08.946Z,3.03
2022-10-25T23:54:10.617Z,2.83
2022-10-25T23:56:13.630Z,3.00
2022-10-25T23:58:15.249Z,2.78
